| time (UTC) | temp F | wind direction | speed knots | gust knots | rain 1hr in | rain 24hr in | rain mn in | humidity % | barometer mb |
| 20260902191544 | 58 | 244 | 1.7 | 2.6 | 0.00 | 0.03 | 0.00 | 93 | 1019.7 |
| 20260902190936 | 67 | 204 | 0.9 | 2.6 | 0.00 | 0.00 | 0.00 | 73 | 1020.0 |
| 20260902185930 | 67 | 204 | 0.9 | 2.6 | 0.00 | 0.00 | 0.00 | 73 | 1020.0 |
| 20260902185116 | 67 | 204 | 0.0 | 2.6 | 0.00 | 0.00 | 0.00 | 73 | 1020.0 |
| 20260902184716 | 69 | 254 | 3.5 | 9.6 | 0.00 | 0.00 | 0.00 | 67 | 1019.8 |
| 20260902184111 | 67 | 204 | 0.9 | 3.5 | 0.00 | 0.00 | 0.00 | 72 | 1019.9 |
| 20260902183107 | 68 | 238 | 1.7 | 3.5 | 0.00 | 0.00 | 0.00 | 71 | 1020.0 |
| 20260902182056 | 68 | 243 | 1.7 | 4.3 | 0.00 | 0.00 | 0.00 | 70 | 1019.9 |
| 20260902181058 | 68 | 217 | 2.6 | 6.1 | 0.00 | 0.00 | 0.00 | 69 | 1019.8 |
| 20260902180101 | 69 | 238 | 2.6 | 6.1 | 0.00 | 0.00 | 0.00 | 68 | 1019.8 |
| 20260902175057 | 69 | 266 | 1.7 | 6.1 | 0.00 | 0.00 | 0.00 | 68 | 1019.8 |
| 20260902174106 | 69 | 268 | 2.6 | 7.8 | 0.00 | 0.00 | 0.00 | 67 | 1019.8 |
| 20260902171956 | 60 | 329 | 0.0 | 0.0 | 0.00 | 0.03 | 0.00 | 91 | 1020.2 |
| 20260902171951 | 69 | 271 | 4.3 | 10.4 | 0.00 | 0.00 | 0.00 | 66 | 1019.8 |
| 20260902171349 | 60 | 329 | 0.0 | 0.9 | 0.00 | 0.03 | 0.00 | 91 | 1020.3 |
| 20260902170939 | 70 | 279 | 3.5 | 10.4 | 0.00 | 0.00 | 0.00 | 66 | 1019.8 |
| 20260902165934 | 70 | 240 | 6.1 | 9.6 | 0.00 | 0.00 | 0.00 | 66 | 1019.9 |
| 20260902165121 | 70 | 250 | 5.2 | 8.7 | 0.00 | 0.00 | 0.00 | 66 | 1019.7 |
| 20260902164115 | 70 | 255 | 3.5 | 7.8 | 0.00 | 0.00 | 0.00 | 65 | 1019.9 |
| 20260902163112 | 70 | 266 | 5.2 | 11.3 | 0.00 | 0.00 | 0.00 | 64 | 1019.8 |
| 20260902162118 | 71 | 238 | 6.1 | 8.7 | 0.00 | 0.00 | 0.00 | 64 | 1019.9 |
| 20260902161122 | 71 | 223 | 6.1 | 10.4 | 0.00 | 0.00 | 0.00 | 65 | 1019.9 |
| 20260902160132 | 70 | 290 | 4.3 | 11.3 | 0.00 | 0.00 | 0.00 | 66 | 1019.9 |
| 20260902155232 | 71 | 248 | 5.2 | 9.6 | 0.00 | 0.00 | 0.00 | 65 | 1019.9 |
| 20260902154025 | 71 | 213 | 3.5 | 9.6 | 0.00 | 0.00 | 0.00 | 63 | 1019.8 |
| 20260902153032 | 71 | 228 | 6.1 | 11.3 | 0.00 | 0.00 | 0.00 | 63 | 1019.9 |
| 20260902152035 | 72 | 209 | 5.2 | 8.7 | 0.00 | 0.00 | 0.00 | 62 | 1019.9 |
| 20260902151023 | 72 | 272 | 5.2 | 9.6 | 0.00 | 0.00 | 0.00 | 62 | 1019.9 |
| 20260902150027 | 72 | 228 | 3.5 | 7.8 | 0.00 | 0.00 | 0.00 | 64 | 1020.0 |
| 20260902144117 | 71 | 252 | 3.5 | 8.7 | 0.00 | 0.00 | 0.00 | 64 | 1020.0 |
| 20260902143108 | 73 | 269 | 6.1 | 10.4 | 0.00 | 0.00 | 0.00 | 62 | 1020.1 |
| 20260902142110 | 73 | 293 | 4.3 | 9.6 | 0.00 | 0.00 | 0.00 | 62 | 1020.1 |
| 20260902141115 | 72 | 247 | 6.1 | 10.4 | 0.00 | 0.00 | 0.00 | 64 | 1020.1 |
| 20260902140124 | 72 | 234 | 4.3 | 11.3 | 0.00 | 0.00 | 0.00 | 65 | 1020.1 |
| 20260902135229 | 73 | 303 | 3.5 | 8.7 | 0.00 | 0.00 | 0.00 | 62 | 1020.0 |
| 20260902134022 | 73 | 203 | 3.5 | 9.6 | 0.00 | 0.00 | 0.00 | 63 | 1020.2 |
| 20260902133020 | 72 | 230 | 4.3 | 11.3 | 0.00 | 0.00 | 0.00 | 64 | 1020.2 |
| 20260902132022 | 73 | 252 | 4.3 | 13.9 | 0.00 | 0.00 | 0.00 | 65 | 1020.1 |
| 20260902131026 | 73 | 245 | 6.1 | 12.2 | 0.00 | 0.00 | 0.00 | 63 | 1020.3 |
| 20260902130023 | 73 | 219 | 6.1 | 9.6 | 0.00 | 0.00 | 0.00 | 64 | 1020.2 |
| 20260902124714 | 71 | 275 | 5.2 | 9.6 | 0.00 | 0.00 | 0.00 | 68 | 1020.6 |
| 20260902124307 | 71 | 240 | 5.2 | 10.4 | 0.00 | 0.00 | 0.00 | 67 | 1020.6 |
| 20260902124100 | 72 | 278 | 2.6 | 10.4 | 0.00 | 0.00 | 0.00 | 65 | 1020.3 |
| 20260902123055 | 73 | 202 | 5.2 | 10.4 | 0.00 | 0.00 | 0.00 | 66 | 1020.4 |
| 20260902122053 | 71 | 212 | 5.2 | 9.6 | 0.00 | 0.00 | 0.00 | 68 | 1020.3 |
| 20260902121057 | 72 | 220 | 3.5 | 7.8 | 0.00 | 0.00 | 0.00 | 68 | 1020.5 |
| 20260902115052 | 71 | 292 | 4.3 | 7.8 | 0.00 | 0.00 | 0.00 | 68 | 1020.6 |
| 20260902113346 | 71 | 202 | 5.2 | 12.2 | 0.00 | 0.01 | 0.00 | 71 | 1020.7 |
| 20260902112943 | 71 | 265 | 4.3 | 11.3 | 0.00 | 0.00 | 0.00 | 69 | 1020.5 |
| 20260902111943 | 71 | 219 | 6.1 | 11.3 | 0.00 | 0.00 | 0.00 | 68 | 1020.5 |
| 20260902110932 | 71 | 258 | 5.2 | 11.3 | 0.00 | 0.00 | 0.00 | 66 | 1020.5 |
| 20260902110129 | 71 | 248 | 7.0 | 11.3 | 0.00 | 0.00 | 0.00 | 69 | 1020.6 |
| 20260902105128 | 71 | 250 | 5.2 | 12.2 | 0.00 | 0.00 | 0.00 | 70 | 1020.8 |
| 20260902104132 | 70 | 226 | 4.3 | 12.2 | 0.00 | 0.00 | 0.00 | 72 | 1020.7 |
| 20260902102830 | 68 | 228 | 6.1 | 9.6 | 0.00 | 0.03 | 0.00 | 75 | 1020.8 |
| 20260902102022 | 70 | 202 | 6.1 | 11.3 | 0.00 | 0.03 | 0.00 | 73 | 1020.7 |
| 20260902101823 | 67 | 219 | 4.3 | 8.7 | 0.00 | 0.03 | 0.00 | 79 | 1020.7 |
| 20260902101012 | 69 | 271 | 6.1 | 13.0 | 0.00 | 0.03 | 0.00 | 73 | 1020.8 |
| 20260902100000 | 69 | 217 | 6.1 | 11.3 | 0.00 | 0.03 | 0.00 | 73 | 1020.7 |
| 20260902095756 | 60 | 220 | 3.5 | 6.1 | 0.00 | 0.03 | 0.00 | 91 | 1020.4 |
| 20260902094948 | 70 | 216 | 5.2 | 10.4 | 0.00 | 0.03 | 0.00 | 75 | 1020.7 |
| 20260902093953 | 69 | 247 | 7.0 | 12.2 | 0.00 | 0.03 | 0.00 | 74 | 1020.7 |
| 20260902091943 | 68 | 204 | 5.2 | 9.6 | 0.00 | 0.03 | 0.00 | 76 | 1020.7 |
| 20260902091141 | 67 | 204 | 5.2 | 10.4 | 0.00 | 0.03 | 0.00 | 76 | 1020.8 |
| 20260902090138 | 68 | 250 | 5.2 | 10.4 | 0.00 | 0.03 | 0.00 | 79 | 1020.6 |
| 20260902084839 | 57 | 203 | 2.6 | 4.3 | 0.00 | 0.03 | 0.00 | 93 | 1019.9 |
| 20260902084031 | 66 | 216 | 5.2 | 11.3 | 0.00 | 0.03 | 0.00 | 78 | 1020.6 |
| 20260902083020 | 66 | 220 | 5.2 | 10.4 | 0.00 | 0.03 | 0.00 | 80 | 1020.5 |
| 20260902082622 | 58 | 245 | 1.7 | 2.6 | 0.00 | 0.03 | 0.00 | 93 | 1019.9 |
| 20260902082009 | 66 | 257 | 3.5 | 9.6 | 0.00 | 0.03 | 0.00 | 80 | 1020.4 |
| 20260902081011 | 65 | 231 | 4.3 | 8.7 | 0.00 | 0.03 | 0.00 | 80 | 1020.3 |
| 20260902080017 | 65 | 212 | 4.3 | 7.8 | 0.00 | 0.03 | 0.00 | 82 | 1020.4 |
| 20260902075024 | 65 | 202 | 4.3 | 8.7 | 0.00 | 0.03 | 0.00 | 82 | 1020.3 |
| 20260902074028 | 64 | 231 | 3.5 | 7.8 | 0.00 | 0.03 | 0.00 | 82 | 1020.3 |
| 20260902072923 | 63 | 234 | 4.3 | 7.8 | 0.00 | 0.03 | 0.00 | 84 | 1020.3 |
| 20260902072122 | 62 | 257 | 5.2 | 8.7 | 0.00 | 0.03 | 0.00 | 87 | 1020.3 |
| 20260902071128 | 61 | 240 | 3.5 | 7.8 | 0.00 | 0.03 | 0.00 | 87 | 1020.4 |
| 20260902070138 | 61 | 248 | 4.3 | 7.8 | 0.00 | 0.03 | 0.00 | 89 | 1020.4 |
| 20260902064034 | 59 | 226 | 2.6 | 7.8 | 0.00 | 0.03 | 0.00 | 92 | 1020.4 |
| 20260902063039 | 58 | 226 | 5.2 | 8.7 | 0.00 | 0.03 | 0.00 | 93 | 1020.3 |
| 20260902062047 | 58 | 204 | 3.5 | 5.2 | 0.00 | 0.03 | 0.00 | 93 | 1020.2 |
| 20260902061050 | 57 | 209 | 2.6 | 5.2 | 0.00 | 0.03 | 0.00 | 93 | 1020.1 |
| 20260902054938 | 57 | 207 | 2.6 | 4.3 | 0.00 | 0.03 | 0.00 | 93 | 1019.9 |
| 20260902053942 | 57 | 220 | 1.7 | 2.6 | 0.00 | 0.03 | 0.00 | 93 | 1020.0 |
| 20260902052947 | 57 | 245 | 0.9 | 2.6 | 0.00 | 0.03 | 0.00 | 93 | 1020.1 |
| 20260902051134 | 58 | 245 | 0.0 | 2.6 | 0.00 | 0.03 | 0.00 | 93 | 1019.9 |
| 20260902050144 | 58 | 245 | 1.7 | 2.6 | 0.00 | 0.03 | 0.00 | 93 | 1019.9 |
| 20260902044022 | 58 | 247 | 1.7 | 2.6 | 0.00 | 0.03 | 0.00 | 93 | 1019.6 |
| 20260902043621 | 60 | 329 | 0.0 | 0.9 | 0.00 | 0.03 | 0.00 | 92 | 1020.0 |
| 20260902043012 | 58 | 247 | 0.0 | 1.7 | 0.00 | 0.03 | 0.00 | 93 | 1019.7 |
| 20260902042609 | 60 | 329 | 0.0 | 1.7 | 0.00 | 0.03 | 0.00 | 92 | 1020.0 |
| 20260902042005 | 58 | 247 | 0.9 | 1.7 | 0.00 | 0.03 | 0.00 | 93 | 1019.7 |
| 20260902040959 | 59 | 247 | 0.9 | 2.6 | 0.00 | 0.03 | 0.00 | 93 | 1019.7 |
| 20260902040353 | 60 | 329 | 0.0 | 1.7 | 0.00 | 0.03 | 0.00 | 92 | 1020.1 |
| 20260902035947 | 59 | 252 | 1.7 | 2.6 | 0.00 | 0.03 | 0.00 | 93 | 1019.8 |
| 20260902034938 | 59 | 259 | 2.6 | 4.3 | 0.00 | 0.03 | 0.00 | 93 | 1019.8 |
| 20260902034137 | 59 | 244 | 0.9 | 2.6 | 0.00 | 0.03 | 0.00 | 93 | 1019.8 |
| 20260902032931 | 59 | 221 | 1.7 | 2.6 | 0.00 | 0.03 | 0.00 | 93 | 1019.8 |
| 20260902032111 | 59 | 212 | 0.9 | 1.7 | 0.00 | 0.03 | 0.00 | 93 | 1019.8 |
| 20260902031116 | 58 | 212 | 0.0 | 0.0 | 0.00 | 0.03 | 0.00 | 93 | 1019.6 |
| 20260902030121 | 59 | 212 | 0.0 | 0.9 | 0.00 | 0.03 | 0.00 | 93 | 1019.6 |
| 20260902025125 | 59 | 212 | 0.0 | 0.9 | 0.00 | 0.03 | 0.00 | 93 | 1019.7 |
| 20260902023016 | 59 | 212 | 1.7 | 1.7 | 0.00 | 0.03 | 0.00 | 93 | 1019.7 |
| 20260902022020 | 59 | 212 | 1.7 | 2.6 | 0.00 | 0.03 | 0.00 | 92 | 1019.9 |
| 20260902021014 | 60 | 213 | 2.6 | 2.6 | 0.00 | 0.03 | 0.00 | 92 | 1019.9 |
| 20260902020020 | 60 | 321 | 1.7 | 2.6 | 0.00 | 0.03 | 0.00 | 92 | 1019.9 |
| 20260902015029 | 60 | 329 | 0.0 | 1.7 | 0.00 | 0.03 | 0.00 | 92 | 1020.0 |
| 20260902012920 | 60 | 329 | 1.7 | 1.7 | 0.00 | 0.03 | 0.00 | 92 | 1020.3 |
| 20260902012117 | 60 | 329 | 0.9 | 1.7 | 0.00 | 0.03 | 0.00 | 92 | 1020.0 |
| 20260902011122 | 60 | 329 | 0.0 | 0.9 | 0.00 | 0.03 | 0.00 | 92 | 1019.9 |
| 20260902010129 | 60 | 329 | 0.0 | 0.9 | 0.00 | 0.03 | 0.00 | 92 | 1019.9 |
| 20260902004032 | 61 | 329 | 0.0 | 1.7 | 0.00 | 0.03 | 0.00 | 92 | 1019.9 |
| 20260902003034 | 60 | 329 | 0.0 | 0.0 | 0.00 | 0.03 | 0.00 | 92 | 1020.0 |
| 20260902002041 | 60 | 329 | 0.0 | 0.0 | 0.00 | 0.03 | 0.00 | 92 | 1020.1 |
| 20260902001044 | 60 | 329 | 0.0 | 0.0 | 0.00 | 0.03 | 0.00 | 92 | 1020.2 |
| 20260901234931 | 60 | 329 | 0.0 | 0.0 | 0.00 | 0.03 | 0.00 | 92 | 1020.2 |
| 20260901234729 | 61 | 329 | 0.0 | 0.0 | 0.00 | 0.03 | 0.00 | 91 | 1020.4 |
| 20260901234325 | 61 | 329 | 0.0 | 0.0 | 0.00 | 0.03 | 0.03 | 91 | 1020.5 |
| 20260901233921 | 60 | 329 | 0.0 | 0.9 | 0.00 | 0.03 | 0.00 | 92 | 1020.2 |
| 20260901232927 | 60 | 329 | 0.9 | 1.7 | 0.00 | 0.03 | 0.00 | 92 | 1020.3 |
| 20260901231933 | 60 | 329 | 0.0 | 0.0 | 0.00 | 0.03 | 0.00 | 91 | 1020.3 |
| 20260901231129 | 60 | 329 | 0.0 | 0.0 | 0.00 | 0.03 | 0.00 | 91 | 1020.3 |
| 20260901230134 | 60 | 329 | 0.0 | 0.0 | 0.00 | 0.03 | 0.00 | 91 | 1020.2 |
| 20260901224832 | 60 | 329 | 0.0 | 0.0 | 0.00 | 0.03 | 0.03 | 91 | 1020.7 |
| 20260901224022 | 60 | 329 | 0.0 | 0.9 | 0.00 | 0.03 | 0.00 | 91 | 1020.3 |
| 20260901222026 | 61 | 329 | 0.0 | 0.0 | 0.00 | 0.03 | 0.00 | 91 | 1020.3 |
| 20260901215026 | 60 | 329 | 0.0 | 0.0 | 0.00 | 0.03 | 0.03 | 91 | 1020.7 |
| 20260901212930 | 60 | 329 | 0.0 | 0.0 | 0.00 | 0.03 | 0.03 | 91 | 1020.7 |
| 20260901211932 | 59 | 329 | 0.0 | 0.0 | 0.00 | 0.03 | 0.03 | 91 | 1020.7 |
| 20260901211128 | 59 | 329 | 0.0 | 0.9 | 0.00 | 0.03 | 0.03 | 90 | 1020.5 |
| 20260901210134 | 60 | 329 | 0.0 | 0.0 | 0.00 | 0.03 | 0.03 | 90 | 1020.5 |
| 20260901205027 | 60 | 329 | 0.0 | 0.0 | 0.00 | 0.03 | 0.03 | 90 | 1020.5 |
| 20260901204021 | 60 | 329 | 0.0 | 0.0 | 0.00 | 0.03 | 0.03 | 89 | 1020.4 |
| 20260901203624 | 61 | 329 | 0.0 | 1.7 | 0.00 | 0.03 | 0.03 | 88 | 1020.3 |
| 20260901203016 | 60 | 329 | 0.0 | 1.7 | 0.00 | 0.03 | 0.03 | 88 | 1020.4 |
| 20260901200956 | 61 | 329 | 0.0 | 0.0 | 0.00 | 0.03 | 0.03 | 88 | 1020.2 |
| 20260901200356 | 64 | 329 | 0.0 | 0.9 | 0.00 | 0.03 | 0.03 | 80 | 1020.0 |
| 20260901195950 | 62 | 329 | 0.0 | 0.0 | 0.00 | 0.03 | 0.03 | 87 | 1020.2 |
| 20260901195054 | 62 | 329 | 0.0 | 0.0 | 0.00 | 0.03 | 0.03 | 86 | 1020.3 |
| 20260901193930 | 62 | 329 | 0.0 | 0.0 | 0.00 | 0.03 | 0.03 | 86 | 1020.2 |
| 20260901192930 | 62 | 329 | 0.0 | 0.0 | 0.00 | 0.03 | 0.03 | 85 | 1020.1 |
| 20260901191932 | 62 | 329 | 0.0 | 0.0 | 0.00 | 0.03 | 0.03 | 84 | 1020.0 |